createdAt,value
2018-01-06T00:00:52.917Z,1.00
2018-01-06T00:03:19.637Z,1.47
2018-01-06T00:05:46.334Z,0.63
2018-01-06T00:08:13.027Z,0.90
2018-01-06T00:10:39.766Z,1.00
2018-01-06T00:13:06.482Z,1.47
2018-01-06T00:15:33.172Z,1.50
2018-01-06T00:17:59.869Z,1.40
2018-01-06T00:20:26.563Z,2.90
2018-01-06T00:22:53.447Z,2.70
2018-01-06T00:25:20.153Z,0.77
2018-01-06T00:27:46.893Z,2.10
2018-01-06T00:30:13.656Z,1.77
2018-01-06T00:32:40.381Z,2.57
2018-01-06T00:35:07.101Z,2.20
2018-01-06T00:37:33.794Z,2.60
2018-01-06T00:40:00.552Z,2.50
2018-01-06T00:42:27.280Z,3.13
2018-01-06T00:44:54.079Z,1.33
2018-01-06T00:47:21.056Z,4.47
2018-01-06T00:49:47.777Z,1.90
2018-01-06T00:52:14.592Z,3.00
2018-01-06T00:54:41.556Z,1.67
2018-01-06T00:57:08.275Z,2.30
2018-01-06T00:59:34.960Z,3.53
2018-01-06T01:02:01.701Z,2.30
2018-01-06T01:04:28.384Z,4.03
2018-01-06T01:06:55.085Z,2.17
2018-01-06T01:09:21.934Z,2.97
2018-01-06T01:11:48.609Z,2.47
2018-01-06T01:14:15.344Z,2.00
2018-01-06T01:16:42.086Z,2.03
2018-01-06T01:19:08.769Z,2.90
2018-01-06T01:21:35.466Z,2.70
2018-01-06T01:24:02.162Z,1.87
2018-01-06T01:26:28.924Z,2.70
2018-01-06T01:28:55.775Z,4.27
2018-01-06T01:31:23.298Z,2.13
2018-01-06T01:33:50.018Z,4.00
2018-01-06T01:36:16.743Z,2.30
2018-01-06T01:38:44.448Z,1.90
2018-01-06T01:41:12.602Z,1.40
2018-01-06T01:43:39.546Z,1.50
2018-01-06T01:46:06.415Z,3.13
2018-01-06T01:48:33.132Z,3.00
2018-01-06T01:50:59.870Z,1.60
2018-01-06T01:53:26.578Z,2.50
2018-01-06T01:55:53.270Z,1.93
2018-01-06T01:58:19.954Z,2.17
2018-01-06T02:00:46.669Z,1.10
2018-01-06T02:03:13.338Z,1.80
2018-01-06T02:05:40.053Z,3.10
2018-01-06T02:08:06.737Z,1.20
2018-01-06T02:10:33.453Z,2.30
2018-01-06T02:13:00.134Z,2.10
2018-01-06T02:15:26.808Z,1.83
2018-01-06T02:17:53.499Z,1.90
2018-01-06T02:20:20.208Z,2.30
2018-01-06T02:22:47.006Z,1.40
2018-01-06T02:25:13.698Z,1.40
2018-01-06T02:27:40.385Z,1.50
2018-01-06T02:30:07.087Z,1.90
2018-01-06T02:32:34.012Z,1.30
2018-01-06T02:35:00.696Z,1.90
2018-01-06T02:37:27.383Z,0.80
2018-01-06T02:39:54.084Z,1.67
2018-01-06T02:42:20.786Z,1.43
2018-01-06T02:44:47.504Z,1.90
2018-01-06T02:47:14.202Z,1.27
2018-01-06T02:49:40.940Z,1.53
2018-01-06T02:52:07.618Z,2.20
2018-01-06T02:54:34.334Z,1.30
2018-01-06T02:57:01.063Z,1.50
2018-01-06T02:59:27.819Z,1.00
2018-01-06T03:01:54.489Z,0.90
2018-01-06T03:04:21.218Z,0.97
2018-01-06T03:06:47.911Z,1.53
2018-01-06T03:09:14.589Z,1.33
2018-01-06T03:11:41.302Z,1.13
2018-01-06T03:14:08.019Z,0.70
2018-01-06T03:16:34.711Z,1.93
2018-01-06T03:19:01.531Z,1.13
2018-01-06T03:21:28.231Z,1.67
2018-01-06T03:23:54.981Z,1.07
2018-01-06T03:26:21.686Z,3.23
2018-01-06T03:28:48.390Z,2.30
2018-01-06T03:31:15.083Z,1.30
2018-01-06T03:33:41.793Z,1.50
2018-01-06T03:36:08.509Z,3.80
2018-01-06T03:38:35.199Z,2.70
2018-01-06T03:41:01.902Z,1.60
2018-01-06T03:43:28.599Z,1.90
2018-01-06T03:45:55.303Z,1.40
2018-01-06T03:48:21.999Z,1.73
2018-01-06T03:50:48.719Z,3.33
2018-01-06T03:53:15.442Z,2.10
2018-01-06T03:55:42.145Z,1.60
2018-01-06T03:58:08.841Z,1.50
2018-01-06T04:00:35.566Z,1.90
2018-01-06T04:03:02.293Z,2.10
2018-01-06T04:05:28.969Z,1.90
2018-01-06T04:07:55.670Z,1.47
2018-01-06T04:10:22.338Z,2.03
2018-01-06T04:12:49.063Z,1.47
2018-01-06T04:15:15.797Z,1.77
2018-01-06T04:17:42.498Z,2.43
2018-01-06T04:20:09.183Z,1.63
2018-01-06T04:22:35.880Z,2.60
2018-01-06T04:25:02.607Z,2.20
2018-01-06T04:27:29.292Z,1.70
2018-01-06T04:29:56.000Z,1.37
2018-01-06T04:32:22.730Z,1.80
2018-01-06T04:34:49.451Z,2.03
2018-01-06T04:37:16.149Z,2.10
2018-01-06T04:39:42.847Z,3.40
2018-01-06T04:42:09.531Z,1.57
2018-01-06T04:44:36.249Z,3.07
2018-01-06T04:47:02.928Z,1.73
2018-01-06T04:49:29.588Z,1.80
2018-01-06T04:51:56.289Z,2.27
2018-01-06T04:54:22.991Z,3.03
2018-01-06T04:56:53.174Z,2.40
2018-01-06T04:59:19.865Z,1.97
2018-01-06T05:01:46.554Z,2.70
2018-01-06T05:04:13.246Z,2.10
2018-01-06T05:06:39.999Z,1.80
2018-01-06T05:09:06.673Z,1.80
2018-01-06T05:11:33.346Z,2.17
2018-01-06T05:14:00.049Z,2.00
2018-01-06T05:16:26.755Z,1.50
2018-01-06T05:18:53.451Z,1.90
2018-01-06T05:21:20.122Z,4.13
2018-01-06T05:23:46.859Z,2.13
2018-01-06T05:26:13.557Z,1.83
2018-01-06T05:28:40.254Z,2.87
2018-01-06T05:31:07.000Z,2.20
2018-01-06T05:33:33.719Z,3.90
2018-01-06T05:36:00.413Z,2.23
2018-01-06T05:38:27.110Z,2.13
2018-01-06T05:40:53.831Z,1.70
2018-01-06T05:43:20.529Z,2.17
2018-01-06T05:45:47.225Z,1.90
2018-01-06T05:48:13.928Z,3.20
2018-01-06T05:50:40.642Z,2.27
2018-01-06T05:53:07.367Z,3.13
2018-01-06T05:55:34.079Z,3.23
2018-01-06T05:58:00.770Z,2.07
2018-01-06T06:00:27.497Z,2.33
2018-01-06T06:02:54.194Z,2.33
2018-01-06T06:05:20.893Z,2.27
2018-01-06T06:07:47.596Z,3.60
2018-01-06T06:10:14.439Z,2.40
2018-01-06T06:12:41.108Z,2.03
2018-01-06T06:15:07.826Z,4.03
2018-01-06T06:17:34.529Z,3.10
2018-01-06T06:20:01.250Z,2.93
2018-01-06T06:22:27.960Z,2.57
2018-01-06T06:24:54.687Z,2.53
2018-01-06T06:27:21.400Z,2.77
2018-01-06T06:29:48.125Z,2.73
2018-01-06T06:32:14.867Z,2.93
2018-01-06T06:34:41.554Z,5.23
2018-01-06T06:37:08.392Z,2.47
2018-01-06T06:39:35.074Z,1.97
2018-01-06T06:42:01.747Z,2.90
2018-01-06T06:44:28.529Z,2.50
2018-01-06T06:46:55.239Z,4.93
2018-01-06T06:49:21.972Z,2.00
2018-01-06T06:51:49.297Z,3.13
2018-01-06T06:54:16.010Z,2.40
2018-01-06T06:56:42.706Z,3.60
2018-01-06T06:59:09.407Z,2.90
2018-01-06T07:01:36.161Z,2.80
2018-01-06T07:04:03.797Z,2.80
2018-01-06T07:06:30.490Z,2.73
2018-01-06T07:08:57.214Z,3.37
2018-01-06T07:11:23.919Z,3.00
2018-01-06T07:13:50.628Z,3.33
2018-01-06T07:16:17.388Z,2.97
2018-01-06T07:18:44.097Z,3.47
2018-01-06T07:21:10.772Z,2.70
2018-01-06T07:23:37.516Z,3.60
2018-01-06T07:26:04.239Z,3.17
2018-01-06T07:28:30.925Z,2.83
2018-01-06T07:30:57.598Z,2.53
2018-01-06T07:33:24.301Z,3.67
2018-01-06T07:35:51.031Z,3.03
2018-01-06T07:38:17.735Z,3.40
2018-01-06T07:40:44.444Z,3.67
2018-01-06T07:43:11.167Z,3.63
2018-01-06T07:45:37.864Z,3.67
2018-01-06T07:48:04.553Z,5.07
2018-01-06T07:50:31.284Z,3.00
2018-01-06T07:52:57.973Z,4.23
2018-01-06T07:55:24.662Z,4.13
2018-01-06T07:57:51.371Z,3.80
2018-01-06T08:00:18.076Z,6.10
2018-01-06T08:02:44.927Z,5.27
2018-01-06T08:05:11.590Z,6.50
2018-01-06T08:07:38.281Z,9.03
2018-01-06T08:10:05.006Z,6.60
2018-01-06T08:12:31.671Z,10.20
2018-01-06T08:14:58.377Z,12.03
2018-01-06T08:17:25.046Z,9.00
2018-01-06T08:19:51.805Z,8.93
2018-01-06T08:22:18.477Z,7.23
2018-01-06T08:24:45.173Z,6.20
2018-01-06T08:27:11.905Z,6.10
2018-01-06T08:29:38.590Z,9.73
2018-01-06T08:32:05.472Z,6.47
2018-01-06T08:34:32.168Z,4.70
2018-01-06T08:36:58.880Z,9.13
2018-01-06T08:39:25.613Z,5.97
2018-01-06T08:41:52.303Z,5.57
2018-01-06T08:44:19.017Z,5.13
2018-01-06T08:46:45.707Z,5.60
2018-01-06T08:49:12.423Z,6.70
2018-01-06T08:51:39.101Z,7.10
2018-01-06T08:54:05.784Z,5.50
2018-01-06T08:56:32.504Z,5.20
2018-01-06T08:58:59.230Z,6.40
2018-01-06T09:01:26.907Z,10.97
2018-01-06T09:03:53.626Z,6.20
2018-01-06T09:06:20.332Z,6.00
2018-01-06T09:08:47.030Z,8.23
2018-01-06T09:11:13.767Z,8.27
2018-01-06T09:13:40.464Z,6.73
2018-01-06T09:16:07.141Z,6.33
2018-01-06T09:18:33.873Z,7.23
2018-01-06T09:21:00.605Z,6.23
2018-01-06T09:23:27.275Z,4.60
2018-01-06T09:25:54.009Z,4.63
2018-01-06T09:28:20.704Z,6.03
2018-01-06T09:30:47.423Z,5.17
2018-01-06T09:33:14.124Z,3.80
2018-01-06T09:35:40.939Z,5.73
2018-01-06T09:38:07.678Z,4.20
2018-01-06T09:40:34.381Z,3.60
2018-01-06T09:43:01.106Z,4.27
2018-01-06T09:45:27.811Z,5.20
2018-01-06T09:47:54.529Z,3.90
2018-01-06T09:50:21.303Z,2.83
2018-01-06T09:52:48.069Z,4.00
2018-01-06T09:55:14.766Z,4.27
2018-01-06T09:57:41.501Z,2.43
2018-01-06T10:00:08.192Z,4.30
2018-01-06T10:02:35.230Z,6.33
2018-01-06T10:05:01.939Z,5.47
2018-01-06T10:07:28.630Z,5.97
2018-01-06T10:09:55.403Z,3.00
2018-01-06T10:12:22.170Z,4.30
2018-01-06T10:14:48.940Z,2.93
2018-01-06T10:17:15.747Z,5.40
2018-01-06T10:19:42.437Z,5.30
2018-01-06T10:22:09.226Z,6.47
2018-01-06T10:24:35.913Z,6.30
2018-01-06T10:27:02.600Z,6.50
2018-01-06T10:29:29.428Z,5.40
2018-01-06T10:31:56.152Z,7.70
2018-01-06T10:34:22.825Z,6.20
2018-01-06T10:36:49.706Z,5.97
2018-01-06T10:39:16.413Z,6.50
2018-01-06T10:41:43.212Z,5.20
2018-01-06T10:44:09.986Z,5.53
2018-01-06T10:46:36.679Z,5.50
2018-01-06T10:49:03.406Z,5.20
2018-01-06T10:51:30.092Z,6.50
2018-01-06T10:53:56.833Z,4.77
2018-01-06T10:56:23.532Z,5.03
2018-01-06T10:58:50.479Z,5.67
2018-01-06T11:01:22.803Z,5.23
2018-01-06T11:03:49.488Z,5.33
2018-01-06T11:06:16.230Z,6.93
2018-01-06T11:08:42.986Z,6.80
2018-01-06T11:11:09.730Z,8.00
2018-01-06T11:13:36.458Z,8.00
2018-01-06T11:16:03.134Z,8.03
2018-01-06T11:18:29.867Z,7.27
2018-01-06T11:20:57.466Z,6.37
2018-01-06T11:23:24.210Z,4.87
2018-01-06T11:25:50.956Z,4.90
2018-01-06T11:28:17.714Z,5.93
2018-01-06T11:30:44.451Z,3.17
2018-01-06T11:33:11.183Z,3.20
2018-01-06T11:35:37.888Z,4.40
2018-01-06T11:38:04.552Z,3.60
2018-01-06T11:40:31.305Z,3.67
2018-01-06T11:42:58.224Z,3.33
2018-01-06T11:45:24.911Z,2.83
2018-01-06T11:47:51.619Z,4.17
2018-01-06T11:50:18.565Z,3.33
2018-01-06T11:52:45.361Z,3.53
2018-01-06T11:55:12.101Z,4.10
2018-01-06T11:57:38.811Z,3.67
2018-01-06T12:00:05.845Z,4.43
2018-01-06T12:02:32.778Z,4.03
2018-01-06T12:04:59.599Z,5.27
2018-01-06T12:07:26.371Z,5.03
2018-01-06T12:09:53.141Z,4.70
2018-01-06T12:12:19.875Z,3.83
2018-01-06T12:14:46.600Z,4.07
2018-01-06T12:17:13.383Z,3.43
2018-01-06T12:19:40.189Z,3.10
2018-01-06T12:22:06.938Z,3.63
2018-01-06T12:24:33.769Z,4.27
2018-01-06T12:27:00.542Z,4.10
2018-01-06T12:29:27.302Z,3.60
2018-01-06T12:31:54.042Z,5.37
2018-01-06T12:34:20.802Z,4.10
2018-01-06T12:36:47.568Z,4.10
2018-01-06T12:39:14.310Z,5.30
2018-01-06T12:41:41.051Z,4.40
2018-01-06T12:44:07.762Z,5.83
2018-01-06T12:46:34.469Z,5.10
2018-01-06T12:49:01.408Z,5.53
2018-01-06T12:51:28.142Z,5.67
2018-01-06T12:53:54.859Z,5.50
2018-01-06T12:56:21.599Z,6.17
2018-01-06T12:58:48.415Z,5.33
2018-01-06T13:01:15.124Z,5.57
2018-01-06T13:03:41.872Z,6.40
2018-01-06T13:06:08.570Z,6.87
2018-01-06T13:08:35.313Z,5.67
2018-01-06T13:11:02.043Z,7.00
2018-01-06T13:13:29.587Z,8.37
2018-01-06T13:15:56.278Z,7.17
2018-01-06T13:18:23.193Z,7.17
2018-01-06T13:20:49.885Z,6.80
2018-01-06T13:23:18.649Z,6.57
2018-01-06T13:25:45.772Z,6.67
2018-01-06T13:28:12.520Z,10.07
2018-01-06T13:30:39.248Z,7.17
2018-01-06T13:33:05.997Z,6.30
2018-01-06T13:35:32.670Z,6.90
2018-01-06T13:37:59.417Z,6.30
2018-01-06T13:40:26.178Z,6.80
2018-01-06T13:42:52.895Z,10.20
2018-01-06T13:45:19.596Z,6.47
2018-01-06T13:47:46.287Z,6.63
2018-01-06T13:50:13.008Z,6.80
2018-01-06T13:52:39.766Z,7.47
2018-01-06T13:55:06.498Z,6.23
2018-01-06T13:57:33.214Z,8.33
2018-01-06T13:59:59.930Z,7.33
2018-01-06T14:02:26.662Z,6.10
2018-01-06T14:04:53.403Z,5.60
2018-01-06T14:07:20.096Z,5.20
2018-01-06T14:09:46.848Z,5.80
2018-01-06T14:12:13.560Z,5.23
2018-01-06T14:14:40.590Z,6.37
2018-01-06T14:17:07.312Z,5.77
2018-01-06T14:19:33.983Z,5.60
2018-01-06T14:22:00.696Z,6.00
2018-01-06T14:24:27.402Z,6.60
2018-01-06T14:26:54.138Z,5.80
2018-01-06T14:29:21.082Z,6.43
2018-01-06T14:31:47.774Z,5.60
2018-01-06T14:34:14.582Z,6.47
2018-01-06T14:36:41.603Z,6.13
2018-01-06T14:39:08.673Z,7.00
2018-01-06T14:41:35.389Z,6.30
2018-01-06T14:44:02.066Z,6.80
2018-01-06T14:46:29.812Z,6.80
2018-01-06T14:48:57.005Z,6.77
2018-01-06T14:51:24.134Z,6.70
2018-01-06T14:53:50.892Z,6.40
2018-01-06T14:56:17.686Z,7.20
2018-01-06T14:58:46.841Z,7.27
2018-01-06T15:01:13.598Z,6.33
2018-01-06T15:03:40.313Z,6.73
2018-01-06T15:06:07.150Z,6.80
2018-01-06T15:08:33.862Z,10.23
2018-01-06T15:11:00.645Z,7.40
2018-01-06T15:13:27.375Z,7.40
2018-01-06T15:15:54.312Z,7.80
2018-01-06T15:18:21.050Z,8.80
2018-01-06T15:20:47.797Z,7.53
2018-01-06T15:23:14.576Z,8.03
2018-01-06T15:25:41.407Z,7.93
2018-01-06T15:28:08.160Z,8.40
2018-01-06T15:30:34.877Z,7.40
2018-01-06T15:33:01.737Z,8.33
2018-01-06T15:35:28.450Z,7.70
2018-01-06T15:37:55.254Z,8.10
2018-01-06T15:40:21.952Z,7.20
2018-01-06T15:42:48.754Z,6.80
2018-01-06T15:45:15.526Z,6.43
2018-01-06T15:47:42.312Z,6.60
2018-01-06T15:50:10.637Z,16.70
2018-01-06T15:52:37.445Z,7.73
2018-01-06T15:55:04.193Z,7.00
2018-01-06T15:57:31.545Z,8.00
2018-01-06T15:59:58.305Z,7.53
2018-01-06T16:02:25.063Z,8.10
2018-01-06T16:04:51.739Z,8.37
2018-01-06T16:07:18.448Z,9.70
2018-01-06T16:09:45.172Z,7.87
2018-01-06T16:12:11.994Z,7.60
2018-01-06T16:14:38.781Z,7.67
2018-01-06T16:17:05.500Z,8.03
2018-01-06T16:19:32.334Z,7.00
2018-01-06T16:21:59.138Z,7.33
2018-01-06T16:24:26.060Z,7.73
2018-01-06T16:26:53.107Z,8.30
2018-01-06T16:29:19.955Z,7.13
2018-01-06T16:31:46.897Z,8.13
2018-01-06T16:34:13.586Z,9.80
2018-01-06T16:36:40.337Z,8.57
2018-01-06T16:39:07.118Z,8.77
2018-01-06T16:41:34.041Z,8.30
2018-01-06T16:44:00.757Z,7.10
2018-01-06T16:46:32.065Z,6.90
2018-01-06T16:48:58.804Z,8.90
2018-01-06T16:51:26.082Z,7.73
2018-01-06T16:53:52.782Z,7.30
2018-01-06T16:56:19.491Z,7.30
2018-01-06T16:58:46.236Z,8.20
2018-01-06T17:01:13.003Z,7.20
2018-01-06T17:03:39.923Z,8.07
2018-01-06T17:06:06.615Z,8.27
2018-01-06T17:08:33.824Z,8.63
2018-01-06T17:11:00.551Z,8.70
2018-01-06T17:13:27.306Z,10.80
2018-01-06T17:15:54.021Z,8.17
2018-01-06T17:18:20.863Z,7.80
2018-01-06T17:20:47.581Z,9.73
2018-01-06T17:23:14.357Z,8.67
2018-01-06T17:25:41.111Z,7.57
2018-01-06T17:28:07.852Z,7.53
2018-01-06T17:30:34.535Z,7.30
2018-01-06T17:33:01.253Z,8.07
2018-01-06T17:35:27.966Z,7.70
2018-01-06T17:37:54.661Z,9.07
2018-01-06T17:40:21.349Z,9.23
2018-01-06T17:42:48.036Z,8.90
2018-01-06T17:45:14.845Z,8.90
2018-01-06T17:47:41.592Z,8.90
2018-01-06T17:50:08.324Z,9.60
2018-01-06T17:52:35.138Z,10.40
2018-01-06T17:55:02.404Z,12.43
2018-01-06T17:57:29.770Z,11.67
2018-01-06T17:59:56.504Z,10.80
2018-01-06T18:02:23.232Z,11.80
2018-01-06T18:04:49.944Z,11.67
2018-01-06T18:07:16.925Z,12.90
2018-01-06T18:09:44.477Z,12.63
2018-01-06T18:12:11.273Z,14.73
2018-01-06T18:14:38.035Z,12.83
2018-01-06T18:17:04.773Z,15.17
2018-01-06T18:19:31.708Z,14.70
2018-01-06T18:21:58.442Z,15.77
2018-01-06T18:24:25.186Z,15.83
2018-01-06T18:26:51.951Z,17.03
2018-01-06T18:29:18.648Z,15.83
2018-01-06T18:31:45.369Z,15.80
2018-01-06T18:34:12.198Z,16.50
2018-01-06T18:36:38.935Z,17.50
2018-01-06T18:39:05.659Z,16.40
2018-01-06T18:41:32.382Z,18.10
2018-01-06T18:43:59.126Z,16.60
2018-01-06T18:46:25.880Z,15.90
2018-01-06T18:48:52.878Z,14.23
2018-01-06T18:51:19.588Z,14.33
2018-01-06T18:53:46.414Z,14.20
2018-01-06T18:56:13.105Z,15.67
2018-01-06T18:58:39.855Z,14.20
2018-01-06T19:01:06.563Z,15.70
2018-01-06T19:03:33.264Z,14.27
2018-01-06T19:06:00.004Z,14.30
2018-01-06T19:08:26.797Z,14.10
2018-01-06T19:10:53.562Z,13.27
2018-01-06T19:13:20.305Z,14.17
2018-01-06T19:15:46.994Z,16.97
2018-01-06T19:18:13.703Z,16.13
2018-01-06T19:20:40.406Z,16.97
2018-01-06T19:23:07.109Z,18.07
2018-01-06T19:25:33.821Z,15.53
2018-01-06T19:28:00.567Z,14.47
2018-01-06T19:30:27.326Z,65.53
2018-01-06T19:32:54.072Z,18.20
2018-01-06T19:35:20.794Z,18.03
2018-01-06T19:37:47.557Z,17.63
2018-01-06T19:40:14.271Z,19.07
2018-01-06T19:42:41.090Z,16.50
2018-01-06T19:45:07.798Z,21.60
2018-01-06T19:47:34.487Z,18.20
2018-01-06T19:50:01.346Z,18.37
2018-01-06T19:52:28.065Z,17.03
2018-01-06T19:54:54.806Z,17.17
2018-01-06T19:57:21.545Z,15.33
2018-01-06T19:59:48.340Z,16.00
2018-01-06T20:02:15.126Z,16.67
2018-01-06T20:04:41.855Z,17.47
2018-01-06T20:07:08.581Z,19.53
2018-01-06T20:09:35.341Z,17.20
2018-01-06T20:12:02.054Z,19.03
2018-01-06T20:14:28.817Z,18.73
2018-01-06T20:16:55.562Z,18.83
2018-01-06T20:19:22.265Z,21.03
2018-01-06T20:21:49.006Z,19.40
2018-01-06T20:24:16.576Z,19.20
2018-01-06T20:26:43.311Z,20.67
2018-01-06T20:29:10.020Z,18.97
2018-01-06T20:31:36.745Z,19.33
2018-01-06T20:34:03.507Z,22.20
2018-01-06T20:36:30.500Z,21.50
2018-01-06T20:38:57.189Z,20.33
2018-01-06T20:41:23.922Z,20.83
2018-01-06T20:43:50.650Z,20.47
2018-01-06T20:46:17.390Z,19.03
2018-01-06T20:48:44.120Z,18.27
2018-01-06T20:51:10.831Z,20.30
2018-01-06T20:53:37.548Z,18.33
2018-01-06T20:56:04.239Z,18.63
2018-01-06T20:58:30.989Z,16.40
2018-01-06T21:00:57.723Z,19.13
2018-01-06T21:03:24.418Z,18.17
2018-01-06T21:05:51.117Z,18.07
2018-01-06T21:08:17.826Z,16.27
2018-01-06T21:10:44.877Z,16.10
2018-01-06T21:13:11.586Z,19.00
2018-01-06T21:15:38.297Z,17.30
2018-01-06T21:18:05.009Z,20.43
2018-01-06T21:20:31.729Z,16.60
2018-01-06T21:22:58.450Z,18.70
2018-01-06T21:25:25.289Z,17.37
2018-01-06T21:27:52.001Z,18.03
2018-01-06T21:30:18.758Z,17.83
2018-01-06T21:32:45.532Z,18.23
2018-01-06T21:35:12.213Z,21.57
2018-01-06T21:37:38.910Z,18.83
2018-01-06T21:40:05.669Z,18.00
2018-01-06T21:42:32.408Z,20.63
2018-01-06T21:44:59.091Z,23.83
2018-01-06T21:47:25.791Z,20.50
2018-01-06T21:49:52.554Z,19.80
2018-01-06T21:52:19.269Z,19.47
2018-01-06T21:54:46.030Z,22.40
2018-01-06T21:57:12.713Z,20.43
2018-01-06T21:59:39.438Z,20.93
2018-01-06T22:02:06.162Z,21.77
2018-01-06T22:04:32.856Z,21.30
2018-01-06T22:06:59.580Z,24.17
2018-01-06T22:09:26.367Z,24.17
2018-01-06T22:11:53.124Z,24.67
2018-01-06T22:14:19.847Z,30.63
2018-01-06T22:16:46.539Z,23.40
2018-01-06T22:19:13.269Z,24.67
2018-01-06T22:21:40.030Z,22.67
2018-01-06T22:24:06.807Z,27.10
2018-01-06T22:26:33.535Z,28.47
2018-01-06T22:29:00.238Z,24.10
2018-01-06T22:31:27.177Z,25.03
2018-01-06T22:33:53.903Z,26.80
2018-01-06T22:36:20.615Z,20.73
2018-01-06T22:38:47.335Z,19.57
2018-01-06T22:41:14.084Z,22.13
2018-01-06T22:43:40.833Z,25.40
2018-01-06T22:46:07.547Z,27.93
2018-01-06T22:48:34.484Z,29.70
2018-01-06T22:51:01.200Z,28.60
2018-01-06T22:53:27.904Z,27.50
2018-01-06T22:55:54.610Z,26.57
2018-01-06T22:58:21.659Z,25.17
2018-01-06T23:00:49.289Z,27.87
2018-01-06T23:03:16.005Z,26.13
2018-01-06T23:05:42.707Z,27.10
2018-01-06T23:08:09.492Z,24.67
2018-01-06T23:10:36.184Z,29.93
2018-01-06T23:13:02.920Z,27.53
2018-01-06T23:15:29.608Z,30.70
2018-01-06T23:17:56.367Z,25.27
2018-01-06T23:20:23.047Z,26.30
2018-01-06T23:22:49.754Z,26.33
2018-01-06T23:25:16.465Z,26.60
2018-01-06T23:27:43.171Z,30.23
2018-01-06T23:30:09.880Z,28.57
2018-01-06T23:32:36.615Z,30.13
2018-01-06T23:35:03.315Z,29.27
2018-01-06T23:37:30.021Z,31.83
2018-01-06T23:39:56.743Z,29.37
2018-01-06T23:42:23.456Z,32.60
2018-01-06T23:44:50.168Z,30.40
2018-01-06T23:47:16.869Z,33.47
2018-01-06T23:49:44.071Z,31.40
2018-01-06T23:52:10.761Z,32.03
2018-01-06T23:54:37.485Z,31.23
2018-01-06T23:57:04.171Z,29.70
2018-01-06T23:59:30.881Z,30.43
